sensor_id;sensor_type;location;lat;lon;timestamp;P1;durP1;ratioP1;P2;durP2;ratioP2
66886;SDS011;67239;51.680;5.976;2023-02-28T00:03:58;9.38;;;5.70;;
66886;SDS011;67239;51.680;5.976;2023-02-28T00:06:25;9.57;;;5.35;;
66886;SDS011;67239;51.680;5.976;2023-02-28T00:08:53;10.52;;;5.93;;
66886;SDS011;67239;51.680;5.976;2023-02-28T00:11:20;11.38;;;5.82;;
66886;SDS011;67239;51.680;5.976;2023-02-28T00:13:47;8.57;;;6.18;;
66886;SDS011;67239;51.680;5.976;2023-02-28T00:16:17;9.48;;;5.75;;
66886;SDS011;67239;51.680;5.976;2023-02-28T00:18:47;9.00;;;6.32;;
66886;SDS011;67239;51.680;5.976;2023-02-28T00:21:16;15.57;;;7.30;;
66886;SDS011;67239;51.680;5.976;2023-02-28T00:23:44;8.00;;;6.80;;
66886;SDS011;67239;51.680;5.976;2023-02-28T00:26:11;9.23;;;5.70;;
66886;SDS011;67239;51.680;5.976;2023-02-28T00:28:43;11.35;;;5.53;;
66886;SDS011;67239;51.680;5.976;2023-02-28T00:31:10;8.40;;;5.97;;
66886;SDS011;67239;51.680;5.976;2023-02-28T00:33:37;12.63;;;6.43;;
66886;SDS011;67239;51.680;5.976;2023-02-28T00:36:08;10.93;;;6.35;;
66886;SDS011;67239;51.680;5.976;2023-02-28T00:38:37;12.80;;;6.05;;
66886;SDS011;67239;51.680;5.976;2023-02-28T00:41:06;10.70;;;7.30;;
66886;SDS011;67239;51.680;5.976;2023-02-28T00:43:35;8.10;;;6.13;;
66886;SDS011;67239;51.680;5.976;2023-02-28T00:46:05;8.77;;;5.75;;
66886;SDS011;67239;51.680;5.976;2023-02-28T00:48:33;7.70;;;6.38;;
66886;SDS011;67239;51.680;5.976;2023-02-28T00:51:00;10.50;;;6.38;;
66886;SDS011;67239;51.680;5.976;2023-02-28T00:53:28;9.23;;;6.28;;
66886;SDS011;67239;51.680;5.976;2023-02-28T00:55:56;10.93;;;6.70;;
66886;SDS011;67239;51.680;5.976;2023-02-28T00:58:25;9.77;;;6.13;;
66886;SDS011;67239;51.680;5.976;2023-02-28T01:00:53;13.00;;;6.28;;
66886;SDS011;67239;51.680;5.976;2023-02-28T01:03:20;9.30;;;6.07;;
66886;SDS011;67239;51.680;5.976;2023-02-28T01:05:49;11.60;;;6.22;;
66886;SDS011;67239;51.680;5.976;2023-02-28T01:08:17;11.38;;;6.18;;
66886;SDS011;67239;51.680;5.976;2023-02-28T01:10:44;12.05;;;6.40;;
66886;SDS011;67239;51.680;5.976;2023-02-28T01:13:11;9.90;;;6.38;;
66886;SDS011;67239;51.680;5.976;2023-02-28T01:15:43;10.50;;;6.05;;
66886;SDS011;67239;51.680;5.976;2023-02-28T01:18:18;9.60;;;6.70;;
66886;SDS011;67239;51.680;5.976;2023-02-28T01:20:46;9.35;;;6.10;;
66886;SDS011;67239;51.680;5.976;2023-02-28T01:23:15;8.73;;;5.43;;
66886;SDS011;67239;51.680;5.976;2023-02-28T01:25:42;7.50;;;6.00;;
66886;SDS011;67239;51.680;5.976;2023-02-28T01:28:09;9.48;;;6.22;;
66886;SDS011;67239;51.680;5.976;2023-02-28T01:30:36;10.35;;;6.88;;
66886;SDS011;67239;51.680;5.976;2023-02-28T01:33:05;10.50;;;6.70;;
66886;SDS011;67239;51.680;5.976;2023-02-28T01:35:33;13.38;;;6.68;;
66886;SDS011;67239;51.680;5.976;2023-02-28T01:38:02;11.10;;;6.53;;
66886;SDS011;67239;51.680;5.976;2023-02-28T01:40:47;8.32;;;6.15;;
66886;SDS011;67239;51.680;5.976;2023-02-28T01:43:22;10.23;;;6.15;;
66886;SDS011;67239;51.680;5.976;2023-02-28T01:45:56;7.90;;;5.53;;
66886;SDS011;67239;51.680;5.976;2023-02-28T01:48:29;10.50;;;6.22;;
66886;SDS011;67239;51.680;5.976;2023-02-28T01:51:05;9.00;;;6.63;;
66886;SDS011;67239;51.680;5.976;2023-02-28T01:53:51;9.00;;;5.65;;
66886;SDS011;67239;51.680;5.976;2023-02-28T01:56:30;9.73;;;5.85;;
66886;SDS011;67239;51.680;5.976;2023-02-28T01:59:04;10.10;;;6.22;;
66886;SDS011;67239;51.680;5.976;2023-02-28T02:01:31;13.70;;;5.80;;
66886;SDS011;67239;51.680;5.976;2023-02-28T02:04:01;9.50;;;6.13;;
66886;SDS011;67239;51.680;5.976;2023-02-28T02:06:34;9.98;;;6.60;;
66886;SDS011;67239;51.680;5.976;2023-02-28T02:09:09;11.68;;;6.22;;
66886;SDS011;67239;51.680;5.976;2023-02-28T02:11:39;9.95;;;5.97;;
66886;SDS011;67239;51.680;5.976;2023-02-28T02:31:24;10.40;;;6.35;;
66886;SDS011;67239;51.680;5.976;2023-02-28T02:42:46;7.38;;;5.82;;
66886;SDS011;67239;51.680;5.976;2023-02-28T02:45:25;9.52;;;5.80;;
66886;SDS011;67239;51.680;5.976;2023-02-28T02:48:05;12.07;;;6.30;;
66886;SDS011;67239;51.680;5.976;2023-02-28T02:50:37;10.40;;;7.05;;
66886;SDS011;67239;51.680;5.976;2023-02-28T02:53:10;10.57;;;5.85;;
66886;SDS011;67239;51.680;5.976;2023-02-28T02:55:42;7.30;;;6.30;;
66886;SDS011;67239;51.680;5.976;2023-02-28T02:58:20;8.20;;;5.53;;
66886;SDS011;67239;51.680;5.976;2023-02-28T03:00:55;10.45;;;6.03;;
66886;SDS011;67239;51.680;5.976;2023-02-28T03:03:27;9.80;;;5.80;;
66886;SDS011;67239;51.680;5.976;2023-02-28T03:05:58;8.27;;;5.38;;
66886;SDS011;67239;51.680;5.976;2023-02-28T03:08:28;8.65;;;5.22;;
66886;SDS011;67239;51.680;5.976;2023-02-28T03:11:04;8.65;;;5.82;;
66886;SDS011;67239;51.680;5.976;2023-02-28T03:22:23;9.57;;;4.78;;
66886;SDS011;67239;51.680;5.976;2023-02-28T03:28:07;7.47;;;5.25;;
66886;SDS011;67239;51.680;5.976;2023-02-28T03:30:49;6.40;;;5.05;;
66886;SDS011;67239;51.680;5.976;2023-02-28T03:33:26;8.88;;;5.05;;
66886;SDS011;67239;51.680;5.976;2023-02-28T03:36:04;5.97;;;4.43;;
66886;SDS011;67239;51.680;5.976;2023-02-28T03:38:47;6.57;;;5.07;;
66886;SDS011;67239;51.680;5.976;2023-02-28T03:41:22;5.53;;;4.53;;
66886;SDS011;67239;51.680;5.976;2023-02-28T03:44:41;9.38;;;4.78;;
66886;SDS011;67239;51.680;5.976;2023-02-28T03:46:57;8.20;;;4.82;;
66886;SDS011;67239;51.680;5.976;2023-02-28T03:49:36;9.38;;;4.82;;
66886;SDS011;67239;51.680;5.976;2023-02-28T03:52:14;7.28;;;5.05;;
66886;SDS011;67239;51.680;5.976;2023-02-28T03:54:48;7.18;;;5.15;;
66886;SDS011;67239;51.680;5.976;2023-02-28T04:00:12;6.95;;;4.47;;
66886;SDS011;67239;51.680;5.976;2023-02-28T04:02:47;10.27;;;5.05;;
66886;SDS011;67239;51.680;5.976;2023-02-28T04:05:19;7.97;;;4.40;;
66886;SDS011;67239;51.680;5.976;2023-02-28T04:07:48;8.23;;;4.90;;
66886;SDS011;67239;51.680;5.976;2023-02-28T04:10:15;8.68;;;4.88;;
66886;SDS011;67239;51.680;5.976;2023-02-28T04:12:43;6.68;;;4.70;;
66886;SDS011;67239;51.680;5.976;2023-02-28T04:15:10;6.78;;;4.93;;
66886;SDS011;67239;51.680;5.976;2023-02-28T04:17:37;7.63;;;5.22;;
66886;SDS011;67239;51.680;5.976;2023-02-28T04:20:05;8.02;;;4.80;;
66886;SDS011;67239;51.680;5.976;2023-02-28T04:22:36;7.35;;;4.90;;
66886;SDS011;67239;51.680;5.976;2023-02-28T04:25:04;6.78;;;4.90;;
66886;SDS011;67239;51.680;5.976;2023-02-28T04:27:32;6.55;;;4.88;;
66886;SDS011;67239;51.680;5.976;2023-02-28T04:30:00;7.55;;;4.53;;
66886;SDS011;67239;51.680;5.976;2023-02-28T04:32:27;7.28;;;4.70;;
66886;SDS011;67239;51.680;5.976;2023-02-28T04:34:54;7.85;;;4.53;;
66886;SDS011;67239;51.680;5.976;2023-02-28T04:37:21;7.18;;;5.00;;
66886;SDS011;67239;51.680;5.976;2023-02-28T04:39:54;7.95;;;4.70;;
66886;SDS011;67239;51.680;5.976;2023-02-28T04:42:21;5.60;;;4.30;;
66886;SDS011;67239;51.680;5.976;2023-02-28T04:44:48;6.80;;;4.50;;
66886;SDS011;67239;51.680;5.976;2023-02-28T04:47:15;9.45;;;4.70;;
66886;SDS011;67239;51.680;5.976;2023-02-28T04:49:43;6.18;;;3.97;;
66886;SDS011;67239;51.680;5.976;2023-02-28T04:52:10;6.07;;;4.32;;
66886;SDS011;67239;51.680;5.976;2023-02-28T04:54:37;8.00;;;4.50;;
66886;SDS011;67239;51.680;5.976;2023-02-28T04:57:05;5.70;;;3.92;;
66886;SDS011;67239;51.680;5.976;2023-02-28T04:59:32;8.38;;;4.65;;
66886;SDS011;67239;51.680;5.976;2023-02-28T05:01:59;9.95;;;4.00;;
66886;SDS011;67239;51.680;5.976;2023-02-28T05:04:26;9.75;;;4.22;;
66886;SDS011;67239;51.680;5.976;2023-02-28T05:06:53;5.15;;;3.90;;
66886;SDS011;67239;51.680;5.976;2023-02-28T05:09:21;6.45;;;3.80;;
66886;SDS011;67239;51.680;5.976;2023-02-28T05:11:48;6.15;;;4.55;;
66886;SDS011;67239;51.680;5.976;2023-02-28T05:14:15;7.43;;;4.30;;
66886;SDS011;67239;51.680;5.976;2023-02-28T05:16:42;6.97;;;4.45;;
66886;SDS011;67239;51.680;5.976;2023-02-28T05:19:09;8.02;;;4.40;;
66886;SDS011;67239;51.680;5.976;2023-02-28T05:21:38;6.00;;;4.15;;
66886;SDS011;67239;51.680;5.976;2023-02-28T05:24:11;6.40;;;4.20;;
66886;SDS011;67239;51.680;5.976;2023-02-28T05:26:39;6.60;;;4.22;;
66886;SDS011;67239;51.680;5.976;2023-02-28T05:29:09;6.43;;;4.38;;
66886;SDS011;67239;51.680;5.976;2023-02-28T05:31:37;6.82;;;4.68;;
66886;SDS011;67239;51.680;5.976;2023-02-28T05:34:05;8.02;;;4.40;;
66886;SDS011;67239;51.680;5.976;2023-02-28T05:36:32;8.32;;;5.28;;
66886;SDS011;67239;51.680;5.976;2023-02-28T05:39:00;6.13;;;5.20;;
66886;SDS011;67239;51.680;5.976;2023-02-28T05:41:27;9.05;;;4.93;;
66886;SDS011;67239;51.680;5.976;2023-02-28T05:43:55;6.68;;;4.72;;
66886;SDS011;67239;51.680;5.976;2023-02-28T05:46:24;8.73;;;4.43;;
66886;SDS011;67239;51.680;5.976;2023-02-28T05:48:51;9.52;;;4.82;;
66886;SDS011;67239;51.680;5.976;2023-02-28T05:51:21;7.03;;;4.30;;
66886;SDS011;67239;51.680;5.976;2023-02-28T05:53:48;7.95;;;4.60;;
66886;SDS011;67239;51.680;5.976;2023-02-28T05:56:16;9.65;;;5.10;;
66886;SDS011;67239;51.680;5.976;2023-02-28T05:58:43;4.68;;;4.20;;
66886;SDS011;67239;51.680;5.976;2023-02-28T06:01:20;8.70;;;4.57;;
66886;SDS011;67239;51.680;5.976;2023-02-28T06:04:01;9.90;;;4.60;;
66886;SDS011;67239;51.680;5.976;2023-02-28T06:06:30;7.55;;;4.25;;
66886;SDS011;67239;51.680;5.976;2023-02-28T06:09:03;6.10;;;4.20;;
66886;SDS011;67239;51.680;5.976;2023-02-28T06:11:32;6.07;;;4.05;;
66886;SDS011;67239;51.680;5.976;2023-02-28T06:14:00;6.47;;;4.00;;
66886;SDS011;67239;51.680;5.976;2023-02-28T06:16:29;4.80;;;3.92;;
66886;SDS011;67239;51.680;5.976;2023-02-28T06:19:01;9.38;;;4.47;;
66886;SDS011;67239;51.680;5.976;2023-02-28T06:21:30;6.05;;;4.30;;
66886;SDS011;67239;51.680;5.976;2023-02-28T06:23:58;7.57;;;4.47;;
66886;SDS011;67239;51.680;5.976;2023-02-28T06:26:25;6.78;;;4.68;;
66886;SDS011;67239;51.680;5.976;2023-02-28T06:28:53;7.85;;;4.53;;
66886;SDS011;67239;51.680;5.976;2023-02-28T06:31:21;8.57;;;4.68;;
66886;SDS011;67239;51.680;5.976;2023-02-28T06:33:48;5.95;;;4.30;;
66886;SDS011;67239;51.680;5.976;2023-02-28T06:36:16;7.93;;;4.68;;
66886;SDS011;67239;51.680;5.976;2023-02-28T06:38:43;7.10;;;4.43;;
66886;SDS011;67239;51.680;5.976;2023-02-28T06:41:11;6.72;;;4.20;;
66886;SDS011;67239;51.680;5.976;2023-02-28T06:43:39;8.13;;;4.95;;
66886;SDS011;67239;51.680;5.976;2023-02-28T06:46:11;4.90;;;3.95;;
66886;SDS011;67239;51.680;5.976;2023-02-28T06:48:40;6.45;;;4.40;;
66886;SDS011;67239;51.680;5.976;2023-02-28T06:51:11;6.20;;;4.00;;
66886;SDS011;67239;51.680;5.976;2023-02-28T06:53:48;7.65;;;4.50;;
66886;SDS011;67239;51.680;5.976;2023-02-28T06:56:17;6.47;;;4.28;;
66886;SDS011;67239;51.680;5.976;2023-02-28T06:58:47;8.20;;;4.38;;
66886;SDS011;67239;51.680;5.976;2023-02-28T07:01:16;7.93;;;3.80;;
66886;SDS011;67239;51.680;5.976;2023-02-28T07:03:44;7.55;;;4.38;;
66886;SDS011;67239;51.680;5.976;2023-02-28T07:06:12;6.45;;;4.03;;
66886;SDS011;67239;51.680;5.976;2023-02-28T07:08:39;7.07;;;4.40;;
66886;SDS011;67239;51.680;5.976;2023-02-28T07:11:07;6.78;;;4.65;;
66886;SDS011;67239;51.680;5.976;2023-02-28T07:13:35;6.40;;;4.43;;
66886;SDS011;67239;51.680;5.976;2023-02-28T07:16:03;8.60;;;4.72;;
66886;SDS011;67239;51.680;5.976;2023-02-28T07:18:34;7.03;;;4.00;;
66886;SDS011;67239;51.680;5.976;2023-02-28T07:21:03;7.28;;;3.97;;
66886;SDS011;67239;51.680;5.976;2023-02-28T07:23:36;7.82;;;4.10;;
66886;SDS011;67239;51.680;5.976;2023-02-28T07:26:09;7.25;;;3.97;;
66886;SDS011;67239;51.680;5.976;2023-02-28T07:28:41;5.53;;;3.85;;
66886;SDS011;67239;51.680;5.976;2023-02-28T07:31:09;6.72;;;3.72;;
66886;SDS011;67239;51.680;5.976;2023-02-28T07:33:38;4.38;;;3.45;;
66886;SDS011;67239;51.680;5.976;2023-02-28T07:36:09;6.90;;;3.70;;
66886;SDS011;67239;51.680;5.976;2023-02-28T07:38:42;8.05;;;3.90;;
66886;SDS011;67239;51.680;5.976;2023-02-28T07:41:15;6.15;;;3.75;;
66886;SDS011;67239;51.680;5.976;2023-02-28T07:43:44;5.18;;;3.38;;
66886;SDS011;67239;51.680;5.976;2023-02-28T07:46:13;6.63;;;3.35;;
66886;SDS011;67239;51.680;5.976;2023-02-28T07:48:43;8.32;;;3.20;;
66886;SDS011;67239;51.680;5.976;2023-02-28T07:51:11;4.90;;;3.17;;
66886;SDS011;67239;51.680;5.976;2023-02-28T07:53:38;5.47;;;3.40;;
66886;SDS011;67239;51.680;5.976;2023-02-28T07:56:05;4.65;;;2.92;;
66886;SDS011;67239;51.680;5.976;2023-02-28T07:58:33;5.32;;;3.13;;
66886;SDS011;67239;51.680;5.976;2023-02-28T08:01:07;4.60;;;2.72;;
66886;SDS011;67239;51.680;5.976;2023-02-28T08:03:37;6.38;;;2.80;;
66886;SDS011;67239;51.680;5.976;2023-02-28T08:06:07;3.90;;;2.60;;
66886;SDS011;67239;51.680;5.976;2023-02-28T08:08:41;3.45;;;2.75;;
66886;SDS011;67239;51.680;5.976;2023-02-28T08:11:08;5.03;;;3.00;;
66886;SDS011;67239;51.680;5.976;2023-02-28T08:13:35;8.05;;;3.00;;
66886;SDS011;67239;51.680;5.976;2023-02-28T08:16:02;3.50;;;2.60;;
66886;SDS011;67239;51.680;5.976;2023-02-28T08:18:30;4.45;;;2.67;;
66886;SDS011;67239;51.680;5.976;2023-02-28T08:20:58;3.97;;;2.60;;
66886;SDS011;67239;51.680;5.976;2023-02-28T08:23:25;4.25;;;3.05;;
66886;SDS011;67239;51.680;5.976;2023-02-28T08:25:53;7.97;;;2.50;;
66886;SDS011;67239;51.680;5.976;2023-02-28T08:28:22;3.80;;;2.20;;
66886;SDS011;67239;51.680;5.976;2023-02-28T08:30:53;3.80;;;2.60;;
66886;SDS011;67239;51.680;5.976;2023-02-28T08:33:22;2.83;;;2.20;;
66886;SDS011;67239;51.680;5.976;2023-02-28T08:35:54;2.67;;;2.03;;
66886;SDS011;67239;51.680;5.976;2023-02-28T08:38:23;4.22;;;2.03;;
66886;SDS011;67239;51.680;5.976;2023-02-28T08:40:56;2.53;;;2.08;;
66886;SDS011;67239;51.680;5.976;2023-02-28T08:43:30;4.20;;;1.95;;
66886;SDS011;67239;51.680;5.976;2023-02-28T08:45:57;5.18;;;2.38;;
66886;SDS011;67239;51.680;5.976;2023-02-28T08:48:25;2.92;;;2.08;;
66886;SDS011;67239;51.680;5.976;2023-02-28T08:50:54;2.70;;;1.90;;
66886;SDS011;67239;51.680;5.976;2023-02-28T08:53:33;4.88;;;2.00;;
66886;SDS011;67239;51.680;5.976;2023-02-28T08:56:01;3.78;;;2.00;;
66886;SDS011;67239;51.680;5.976;2023-02-28T08:58:38;4.20;;;2.10;;
66886;SDS011;67239;51.680;5.976;2023-02-28T09:01:07;5.15;;;1.90;;
66886;SDS011;67239;51.680;5.976;2023-02-28T09:03:43;3.42;;;1.95;;
66886;SDS011;67239;51.680;5.976;2023-02-28T09:06:12;3.00;;;2.00;;
66886;SDS011;67239;51.680;5.976;2023-02-28T09:08:43;3.38;;;2.13;;
66886;SDS011;67239;51.680;5.976;2023-02-28T09:11:10;4.15;;;2.55;;
66886;SDS011;67239;51.680;5.976;2023-02-28T09:13:37;3.33;;;2.00;;
66886;SDS011;67239;51.680;5.976;2023-02-28T09:16:06;4.70;;;1.90;;
66886;SDS011;67239;51.680;5.976;2023-02-28T09:18:38;4.15;;;1.92;;
66886;SDS011;67239;51.680;5.976;2023-02-28T09:21:07;3.05;;;1.88;;
66886;SDS011;67239;51.680;5.976;2023-02-28T09:23:40;3.75;;;1.88;;
66886;SDS011;67239;51.680;5.976;2023-02-28T09:26:12;3.75;;;2.17;;
66886;SDS011;67239;51.680;5.976;2023-02-28T09:28:45;4.45;;;1.70;;
66886;SDS011;67239;51.680;5.976;2023-02-28T09:31:17;2.08;;;1.63;;
66886;SDS011;67239;51.680;5.976;2023-02-28T09:33:49;3.35;;;1.40;;
66886;SDS011;67239;51.680;5.976;2023-02-28T09:36:19;2.67;;;1.50;;
66886;SDS011;67239;51.680;5.976;2023-02-28T09:38:50;2.03;;;1.40;;
66886;SDS011;67239;51.680;5.976;2023-02-28T09:41:21;3.47;;;1.48;;
66886;SDS011;67239;51.680;5.976;2023-02-28T09:43:53;2.10;;;1.50;;
66886;SDS011;67239;51.680;5.976;2023-02-28T09:46:32;2.53;;;1.48;;
66886;SDS011;67239;51.680;5.976;2023-02-28T09:49:17;3.30;;;1.55;;
66886;SDS011;67239;51.680;5.976;2023-02-28T09:51:53;2.17;;;1.35;;
66886;SDS011;67239;51.680;5.976;2023-02-28T09:54:31;3.47;;;1.40;;
66886;SDS011;67239;51.680;5.976;2023-02-28T09:57:06;2.53;;;1.70;;
66886;SDS011;67239;51.680;5.976;2023-02-28T10:05:43;2.78;;;1.52;;
66886;SDS011;67239;51.680;5.976;2023-02-28T10:08:23;2.08;;;1.52;;
66886;SDS011;67239;51.680;5.976;2023-02-28T10:10:57;2.05;;;1.50;;
66886;SDS011;67239;51.680;5.976;2023-02-28T10:16:18;2.38;;;1.42;;
66886;SDS011;67239;51.680;5.976;2023-02-28T10:18:56;2.83;;;1.65;;
66886;SDS011;67239;51.680;5.976;2023-02-28T10:21:39;2.05;;;1.23;;
66886;SDS011;67239;51.680;5.976;2023-02-28T10:27:20;1.63;;;1.27;;
66886;SDS011;67239;51.680;5.976;2023-02-28T10:29:56;2.30;;;1.40;;
66886;SDS011;67239;51.680;5.976;2023-02-28T10:32:27;5.95;;;1.70;;
66886;SDS011;67239;51.680;5.976;2023-02-28T10:37:41;2.88;;;1.50;;
66886;SDS011;67239;51.680;5.976;2023-02-28T10:43:16;4.35;;;1.38;;
66886;SDS011;67239;51.680;5.976;2023-02-28T10:46:33;2.67;;;1.38;;
66886;SDS011;67239;51.680;5.976;2023-02-28T10:51:39;2.47;;;1.80;;
66886;SDS011;67239;51.680;5.976;2023-02-28T10:57:17;1.92;;;1.30;;
66886;SDS011;67239;51.680;5.976;2023-02-28T10:59:51;1.75;;;1.20;;
66886;SDS011;67239;51.680;5.976;2023-02-28T11:05:23;1.80;;;1.27;;
66886;SDS011;67239;51.680;5.976;2023-02-28T11:08:06;3.50;;;1.20;;
66886;SDS011;67239;51.680;5.976;2023-02-28T11:10:39;3.33;;;1.48;;
66886;SDS011;67239;51.680;5.976;2023-02-28T11:13:20;2.42;;;1.40;;
66886;SDS011;67239;51.680;5.976;2023-02-28T11:15:57;2.10;;;1.17;;
66886;SDS011;67239;51.680;5.976;2023-02-28T11:18:30;2.97;;;1.20;;
66886;SDS011;67239;51.680;5.976;2023-02-28T11:21:03;2.75;;;1.40;;
66886;SDS011;67239;51.680;5.976;2023-02-28T11:23:32;2.72;;;1.40;;
66886;SDS011;67239;51.680;5.976;2023-02-28T11:26:03;1.85;;;1.45;;
66886;SDS011;67239;51.680;5.976;2023-02-28T11:28:41;1.92;;;1.38;;
66886;SDS011;67239;51.680;5.976;2023-02-28T11:33:41;2.55;;;1.38;;
66886;SDS011;67239;51.680;5.976;2023-02-28T11:38:54;8.00;;;1.63;;
66886;SDS011;67239;51.680;5.976;2023-02-28T11:41:38;3.13;;;1.50;;
66886;SDS011;67239;51.680;5.976;2023-02-28T11:50:10;2.35;;;1.40;;
66886;SDS011;67239;51.680;5.976;2023-02-28T11:53:10;4.13;;;1.35;;
66886;SDS011;67239;51.680;5.976;2023-02-28T11:55:59;2.97;;;1.23;;
66886;SDS011;67239;51.680;5.976;2023-02-28T11:58:39;2.37;;;1.30;;
66886;SDS011;67239;51.680;5.976;2023-02-28T12:10:24;3.83;;;1.40;;
66886;SDS011;67239;51.680;5.976;2023-02-28T12:16:16;2.50;;;1.48;;
66886;SDS011;67239;51.680;5.976;2023-02-28T12:27:38;2.20;;;1.45;;
66886;SDS011;67239;51.680;5.976;2023-02-28T12:33:14;2.75;;;1.42;;
66886;SDS011;67239;51.680;5.976;2023-02-28T12:38:29;2.40;;;1.50;;
66886;SDS011;67239;51.680;5.976;2023-02-28T12:41:09;1.95;;;1.40;;
66886;SDS011;67239;51.680;5.976;2023-02-28T12:43:45;1.75;;;1.20;;
66886;SDS011;67239;51.680;5.976;2023-02-28T12:46:21;3.78;;;1.73;;
66886;SDS011;67239;51.680;5.976;2023-02-28T12:48:56;2.47;;;1.40;;
66886;SDS011;67239;51.680;5.976;2023-02-28T12:51:27;2.33;;;1.40;;
66886;SDS011;67239;51.680;5.976;2023-02-28T12:59:50;2.55;;;1.50;;
66886;SDS011;67239;51.680;5.976;2023-02-28T13:08:48;2.60;;;1.75;;
66886;SDS011;67239;51.680;5.976;2023-02-28T13:11:48;2.00;;;1.42;;
66886;SDS011;67239;51.680;5.976;2023-02-28T13:14:20;2.95;;;1.77;;
66886;SDS011;67239;51.680;5.976;2023-02-28T13:16:58;1.77;;;1.45;;
66886;SDS011;67239;51.680;5.976;2023-02-28T13:19:39;2.63;;;1.80;;
66886;SDS011;67239;51.680;5.976;2023-02-28T13:22:17;7.32;;;2.00;;
66886;SDS011;67239;51.680;5.976;2023-02-28T13:27:50;1.70;;;1.50;;
66886;SDS011;67239;51.680;5.976;2023-02-28T13:33:35;2.38;;;1.60;;
66886;SDS011;67239;51.680;5.976;2023-02-28T13:38:41;3.95;;;1.77;;
66886;SDS011;67239;51.680;5.976;2023-02-28T13:44:07;3.20;;;1.98;;
66886;SDS011;67239;51.680;5.976;2023-02-28T13:49:31;5.15;;;1.77;;
66886;SDS011;67239;51.680;5.976;2023-02-28T14:00:59;2.50;;;1.63;;
66886;SDS011;67239;51.680;5.976;2023-02-28T14:06:58;2.10;;;1.60;;
66886;SDS011;67239;51.680;5.976;2023-02-28T14:09:28;2.72;;;1.67;;
66886;SDS011;67239;51.680;5.976;2023-02-28T14:18:00;2.53;;;1.50;;
66886;SDS011;67239;51.680;5.976;2023-02-28T14:20:31;2.40;;;1.60;;
66886;SDS011;67239;51.680;5.976;2023-02-28T14:23:09;1.83;;;1.63;;
66886;SDS011;67239;51.680;5.976;2023-02-28T14:25:48;3.88;;;1.90;;
66886;SDS011;67239;51.680;5.976;2023-02-28T14:29:14;2.85;;;1.88;;
66886;SDS011;67239;51.680;5.976;2023-02-28T14:32:05;2.22;;;1.70;;
66886;SDS011;67239;51.680;5.976;2023-02-28T14:37:55;3.22;;;2.10;;
66886;SDS011;67239;51.680;5.976;2023-02-28T14:40:30;3.25;;;1.80;;
66886;SDS011;67239;51.680;5.976;2023-02-28T14:43:03;2.65;;;2.00;;
66886;SDS011;67239;51.680;5.976;2023-02-28T14:45:33;3.25;;;1.90;;
66886;SDS011;67239;51.680;5.976;2023-02-28T14:48:03;3.33;;;1.90;;
66886;SDS011;67239;51.680;5.976;2023-02-28T14:50:37;33.20;;;3.47;;
66886;SDS011;67239;51.680;5.976;2023-02-28T14:53:04;4.13;;;1.90;;
66886;SDS011;67239;51.680;5.976;2023-02-28T14:55:44;5.30;;;2.17;;
66886;SDS011;67239;51.680;5.976;2023-02-28T14:58:21;2.22;;;1.70;;
66886;SDS011;67239;51.680;5.976;2023-02-28T15:00:51;3.13;;;2.00;;
66886;SDS011;67239;51.680;5.976;2023-02-28T15:03:31;2.15;;;1.80;;
66886;SDS011;67239;51.680;5.976;2023-02-28T15:06:12;4.00;;;1.90;;
66886;SDS011;67239;51.680;5.976;2023-02-28T15:08:44;3.35;;;1.88;;
66886;SDS011;67239;51.680;5.976;2023-02-28T15:11:18;7.82;;;2.22;;
66886;SDS011;67239;51.680;5.976;2023-02-28T15:13:50;2.33;;;1.90;;
66886;SDS011;67239;51.680;5.976;2023-02-28T15:16:22;2.78;;;1.80;;
66886;SDS011;67239;51.680;5.976;2023-02-28T15:21:35;3.05;;;1.80;;
66886;SDS011;67239;51.680;5.976;2023-02-28T15:24:10;5.13;;;2.00;;
66886;SDS011;67239;51.680;5.976;2023-02-28T15:27:07;4.22;;;2.22;;
66886;SDS011;67239;51.680;5.976;2023-02-28T15:29:45;3.30;;;1.98;;
66886;SDS011;67239;51.680;5.976;2023-02-28T15:32:23;3.03;;;1.83;;
66886;SDS011;67239;51.680;5.976;2023-02-28T15:34:56;2.47;;;1.88;;
66886;SDS011;67239;51.680;5.976;2023-02-28T15:42:58;3.17;;;2.05;;
66886;SDS011;67239;51.680;5.976;2023-02-28T15:48:16;2.58;;;2.00;;
66886;SDS011;67239;51.680;5.976;2023-02-28T15:50:48;2.42;;;1.80;;
66886;SDS011;67239;51.680;5.976;2023-02-28T15:53:30;2.53;;;2.05;;
66886;SDS011;67239;51.680;5.976;2023-02-28T15:56:05;2.85;;;1.92;;
66886;SDS011;67239;51.680;5.976;2023-02-28T15:59:01;3.00;;;2.10;;
66886;SDS011;67239;51.680;5.976;2023-02-28T16:01:35;4.20;;;2.17;;
66886;SDS011;67239;51.680;5.976;2023-02-28T16:04:06;3.53;;;1.80;;
66886;SDS011;67239;51.680;5.976;2023-02-28T16:06:46;2.88;;;2.10;;
66886;SDS011;67239;51.680;5.976;2023-02-28T16:09:31;3.08;;;2.15;;
66886;SDS011;67239;51.680;5.976;2023-02-28T16:12:01;2.35;;;2.10;;
66886;SDS011;67239;51.680;5.976;2023-02-28T16:14:31;4.28;;;2.20;;
66886;SDS011;67239;51.680;5.976;2023-02-28T16:17:03;4.18;;;2.20;;
66886;SDS011;67239;51.680;5.976;2023-02-28T16:19:37;6.82;;;4.50;;
66886;SDS011;67239;51.680;5.976;2023-02-28T16:22:04;8.38;;;5.05;;
66886;SDS011;67239;51.680;5.976;2023-02-28T16:24:31;4.95;;;3.60;;
66886;SDS011;67239;51.680;5.976;2023-02-28T16:26:59;2.92;;;1.98;;
66886;SDS011;67239;51.680;5.976;2023-02-28T16:29:32;4.72;;;2.38;;
66886;SDS011;67239;51.680;5.976;2023-02-28T16:32:04;3.08;;;2.30;;
66886;SDS011;67239;51.680;5.976;2023-02-28T16:34:33;3.33;;;2.10;;
66886;SDS011;67239;51.680;5.976;2023-02-28T16:37:02;3.60;;;2.30;;
66886;SDS011;67239;51.680;5.976;2023-02-28T16:39:37;5.35;;;2.53;;
66886;SDS011;67239;51.680;5.976;2023-02-28T16:42:05;6.82;;;4.20;;
66886;SDS011;67239;51.680;5.976;2023-02-28T16:44:35;9.75;;;5.97;;
66886;SDS011;67239;51.680;5.976;2023-02-28T16:47:03;5.05;;;3.20;;
66886;SDS011;67239;51.680;5.976;2023-02-28T16:49:31;3.83;;;2.20;;
66886;SDS011;67239;51.680;5.976;2023-02-28T16:51:59;11.82;;;6.75;;
66886;SDS011;67239;51.680;5.976;2023-02-28T16:54:27;8.98;;;5.32;;
66886;SDS011;67239;51.680;5.976;2023-02-28T16:56:55;5.93;;;3.20;;
66886;SDS011;67239;51.680;5.976;2023-02-28T16:59:24;3.95;;;2.35;;
66886;SDS011;67239;51.680;5.976;2023-02-28T17:01:54;11.52;;;5.95;;
66886;SDS011;67239;51.680;5.976;2023-02-28T17:04:27;29.23;;;14.93;;
66886;SDS011;67239;51.680;5.976;2023-02-28T17:06:55;4.80;;;3.00;;
66886;SDS011;67239;51.680;5.976;2023-02-28T17:09:23;4.28;;;2.65;;
66886;SDS011;67239;51.680;5.976;2023-02-28T17:14:35;2.90;;;1.90;;
66886;SDS011;67239;51.680;5.976;2023-02-28T17:17:05;3.38;;;2.25;;
66886;SDS011;67239;51.680;5.976;2023-02-28T17:19:34;4.00;;;1.95;;
66886;SDS011;67239;51.680;5.976;2023-02-28T17:22:03;2.92;;;1.92;;
66886;SDS011;67239;51.680;5.976;2023-02-28T17:24:31;3.33;;;2.05;;
66886;SDS011;67239;51.680;5.976;2023-02-28T17:26:59;4.88;;;2.22;;
66886;SDS011;67239;51.680;5.976;2023-02-28T17:29:26;6.45;;;2.67;;
66886;SDS011;67239;51.680;5.976;2023-02-28T17:31:56;5.63;;;2.92;;
66886;SDS011;67239;51.680;5.976;2023-02-28T17:34:28;5.43;;;2.80;;
66886;SDS011;67239;51.680;5.976;2023-02-28T17:36:56;6.20;;;2.80;;
66886;SDS011;67239;51.680;5.976;2023-02-28T17:39:24;3.83;;;2.60;;
66886;SDS011;67239;51.680;5.976;2023-02-28T17:41:52;5.03;;;2.65;;
66886;SDS011;67239;51.680;5.976;2023-02-28T17:44:22;5.15;;;3.00;;
66886;SDS011;67239;51.680;5.976;2023-02-28T17:46:52;4.13;;;2.92;;
66886;SDS011;67239;51.680;5.976;2023-02-28T17:49:22;6.05;;;3.08;;
66886;SDS011;67239;51.680;5.976;2023-02-28T17:51:50;7.05;;;3.50;;
66886;SDS011;67239;51.680;5.976;2023-02-28T17:54:19;4.00;;;2.78;;
66886;SDS011;67239;51.680;5.976;2023-02-28T17:56:47;5.40;;;3.20;;
66886;SDS011;67239;51.680;5.976;2023-02-28T17:59:14;3.75;;;2.80;;
66886;SDS011;67239;51.680;5.976;2023-02-28T18:01:42;5.15;;;3.08;;
66886;SDS011;67239;51.680;5.976;2023-02-28T18:04:10;4.63;;;3.13;;